ALF weather

Alta Airport
Alta, Finnmark, Norway

Public forecast

Using degrees Celsius for public forecast. Weather courtesy of forecast.io.

METAR (pilot weather report)

Retrieved 2019/05/22 15:50 UTC (51 minutes ago):

ENAT 221550Z 07010KT 9999 BKN044 05/M03 Q1024 RMK WIND 700FT 06014KT

TAF (pilot weather forecast)

Closest forecast is Banak Airport, 33.3 nm (61.7 km) E. Retrieved 2019/05/22 12:57 UTC (4 hours ago):

TAF TAF ENNA 221100Z 2212/2312 02008KT 9999 FEW015 BKN025 TEMPO 2212/2218 01018KT